Huvudsida
METAR-TAF:

METAR-TAF

Flygplatser :

Wallis, Frankrike

latitud: 13-14S, longitud: 176-10W, höjd: 23 m

METAR: saknas

Tid: 12:38 (00:38 UTC)

Väderprognos

Denna rapport gjordes för 1 timme och 38 minuter sedan, klockan 23:00 UTC
Prognos gäller från 15 kl. 00 UTC till 15 kl. 24 UTC
Vind 10 kt från väst
Sikt 10 km eller mer
Spridda moln på en höjd av 2000 ft
Spridda moln på en höjd av 4000 ft
Sannolikhet 40% :
Temporärt
från 15 kl. 00 UTC till 15 kl. 24 UTC
Sikt: 3000 m
Brutna moln på en höjd av 1100 ft
Få moln på en höjd av 1500 ft, Cumulonimbus.
Spridda moln på en höjd av 1800 ft, Högtornande cumulus.
regnskurar

TAF: NLWW 142300Z 1500/1524 28010KT 9999 SCT020 SCT040 PROB40 TEMPO 1500/1524 3000 SHRA BKN011 FEW015CB SCT018TCU

Aktuella väderrapporter och prognoser från 4000 flygplatser (METAR- och TAF-rapporter).

De tillgängliga stationerna syns som gula och röda prickar på kartan.

För musen över prickarna för att se namnen på stationerna.

Klicka sedan för att få väderrapporter och prognoser.

För att ändra kartan: Klicka på de gröna knapparna med ett svart kors på för att zooma in; den gröna knappen med ett streck på för att zooma ut; eller på de gröna pilarna för angränsande kartor.


METAR-TAF: